Time;durP1;ratioP1;P1;durP2;ratioP2;P2;SDS_P1;SDS_P2;PMS_P1;PMS_P2;Temp;Humidity;BMP_temperature;BMP_pressure;BME280_temperature;BME280_humidity;BME280_pressure;Samples;Min_cycle;Max_cycle;Signal;HPM_P1;HPM_P2
2023/07/24 00:02:15;;;;;;;10.37;7.23;;;;;;;;;;5014731;28;20304;-71
2023/07/24 00:05:19;;;;;;;13.23;7.03;;;;;;;;;;5003579;28;20173;-70
2023/07/24 00:08:24;;;;;;;15.63;7.33;;;;;;;;;;5015614;28;20181;-71
2023/07/24 00:11:28;;;;;;;13.47;6.90;;;;;;;;;;5015435;28;20572;-71
2023/07/24 00:14:32;;;;;;;10.60;6.93;;;;;;;;;;5015654;28;20632;-71
2023/07/24 00:17:36;;;;;;;10.93;6.77;;;;;;;;;;5003448;28;20189;-71
2023/07/24 00:20:41;;;;;;;9.93;6.27;;;;;;;;;;5015357;28;20212;-71
2023/07/24 00:23:45;;;;;;;16.37;6.50;;;;;;;;;;5014669;28;20509;-71
2023/07/24 00:26:49;;;;;;;10.90;7.60;;;;;;;;;;5015534;28;20181;-70
2023/07/24 00:29:53;;;;;;;11.67;6.37;;;;;;;;;;5014435;28;20189;-72
2023/07/24 00:32:59;;;;;;;13.07;6.97;;;;;;;;;;5015126;28;20210;-72
2023/07/24 00:36:03;;;;;;;14.77;7.13;;;;;;;;;;5003267;28;20186;-71
2023/07/24 00:39:08;;;;;;;9.73;6.30;;;;;;;;;;5003062;28;20565;-71
2023/07/24 00:42:12;;;;;;;12.40;7.00;;;;;;;;;;5014070;28;20213;-72
2023/07/24 00:45:16;;;;;;;10.33;6.50;;;;;;;;;;5014333;28;20197;-72
2023/07/24 00:48:20;;;;;;;11.23;7.03;;;;;;;;;;5014807;28;20193;-72
2023/07/24 00:51:27;;;;;;;9.97;6.40;;;;;;;;;;5014590;28;20209;-71
2023/07/24 00:54:33;;;;;;;11.77;7.37;;;;;;;;;;5002656;28;20178;-72
2023/07/24 00:57:37;;;;;;;12.70;6.93;;;;;;;;;;5013785;28;20201;-71
2023/07/24 01:00:42;;;;;;;15.03;6.97;;;;;;;;;;5013899;28;20213;-71
2023/07/24 01:03:46;;;;;;;14.07;6.93;;;;;;;;;;5014105;28;20178;-71
2023/07/24 01:06:50;;;;;;;10.90;5.97;;;;;;;;;;5013995;28;20640;-71
2023/07/24 01:09:54;;;;;;;11.43;6.80;;;;;;;;;;5013681;28;20201;-72
2023/07/24 01:13:06;;;;;;;10.83;7.03;;;;;;;;;;5014603;28;20198;-71
2023/07/24 01:16:18;;;;;;;9.50;6.60;;;;;;;;;;5014659;28;20186;-71
2023/07/24 01:19:22;;;;;;;11.83;6.50;;;;;;;;;;5013656;28;20189;-71
2023/07/24 01:22:29;;;;;;;15.27;7.40;;;;;;;;;;5002007;28;20221;-71
2023/07/24 01:25:37;;;;;;;10.63;6.87;;;;;;;;;;5013424;28;20182;-71
2023/07/24 01:28:41;;;;;;;12.17;6.57;;;;;;;;;;5014312;28;20205;-71
2023/07/24 01:31:45;;;;;;;9.87;6.67;;;;;;;;;;5013443;28;20701;-71
2023/07/24 01:34:52;;;;;;;11.63;7.13;;;;;;;;;;5013245;28;20178;-71
2023/07/24 01:37:57;;;;;;;12.77;7.50;;;;;;;;;;5013115;28;20177;-71
2023/07/24 01:41:05;;;;;;;10.70;6.67;;;;;;;;;;5002103;28;20225;-71
2023/07/24 01:44:09;;;;;;;13.03;7.43;;;;;;;;;;5013886;28;20173;-71
2023/07/24 01:47:13;;;;;;;11.50;7.27;;;;;;;;;;5012992;28;20178;-71
2023/07/24 01:50:17;;;;;;;11.57;7.23;;;;;;;;;;5002069;28;20644;-71
2023/07/24 01:53:21;;;;;;;10.17;7.17;;;;;;;;;;5013122;28;20704;-71
2023/07/24 01:56:25;;;;;;;10.23;6.60;;;;;;;;;;5013957;28;20636;-71
2023/07/24 01:59:29;;;;;;;13.17;7.43;;;;;;;;;;5012826;28;20612;-71
2023/07/24 02:02:33;;;;;;;11.83;7.13;;;;;;;;;;5001417;28;20217;-71
2023/07/24 02:05:37;;;;;;;10.43;7.20;;;;;;;;;;5013484;28;20197;-71
2023/07/24 02:08:47;;;;;;;14.50;6.67;;;;;;;;;;5012789;28;20177;-71
2023/07/24 02:11:51;;;;;;;13.37;7.20;;;;;;;;;;5012651;28;20221;-71
2023/07/24 02:14:55;;;;;;;10.17;7.10;;;;;;;;;;5012635;28;20510;-71
2023/07/24 02:18:00;;;;;;;12.30;7.57;;;;;;;;;;4990783;28;20185;-72
2023/07/24 02:21:04;;;;;;;10.00;6.60;;;;;;;;;;5012682;28;20217;-72
2023/07/24 02:24:08;;;;;;;14.90;6.87;;;;;;;;;;5013450;28;20181;-71
2023/07/24 02:27:16;;;;;;;11.50;6.67;;;;;;;;;;5013036;28;20185;-71
2023/07/24 02:30:20;;;;;;;13.87;7.17;;;;;;;;;;5013407;28;20197;-71
2023/07/24 02:33:24;;;;;;;13.03;6.93;;;;;;;;;;5012344;28;20212;-71
2023/07/24 02:36:28;;;;;;;12.43;6.93;;;;;;;;;;5013185;28;20205;-71
2023/07/24 02:39:33;;;;;;;13.43;7.23;;;;;;;;;;5013169;28;20185;-71
2023/07/24 02:42:38;;;;;;;10.00;7.10;;;;;;;;;;5012546;28;20219;-71
2023/07/24 02:45:43;;;;;;;12.07;7.33;;;;;;;;;;5013109;28;20190;-71
2023/07/24 02:48:47;;;;;;;12.47;7.90;;;;;;;;;;5015702;28;20173;-71
2023/07/24 02:51:51;;;;;;;12.90;7.50;;;;;;;;;;5016157;28;20216;-71
2023/07/24 02:54:55;;;;;;;13.63;7.27;;;;;;;;;;5016604;28;20213;-71
2023/07/24 02:57:59;;;;;;;16.23;7.43;;;;;;;;;;5004802;28;20209;-71
2023/07/24 03:01:06;;;;;;;12.37;7.73;;;;;;;;;;5016418;28;20217;-71
2023/07/24 03:04:10;;;;;;;10.13;6.60;;;;;;;;;;5016526;28;20170;-71
2023/07/24 03:07:14;;;;;;;11.50;7.33;;;;;;;;;;5004995;28;20177;-71
2023/07/24 03:10:19;;;;;;;14.40;7.80;;;;;;;;;;5015832;28;20181;-71
2023/07/24 03:13:23;;;;;;;13.57;7.20;;;;;;;;;;5016001;28;20209;-71
2023/07/24 03:16:27;;;;;;;13.93;7.50;;;;;;;;;;5015690;28;20201;-72
2023/07/24 03:19:31;;;;;;;15.07;7.93;;;;;;;;;;5004738;28;20189;-72
2023/07/24 03:22:35;;;;;;;12.20;8.17;;;;;;;;;;5015772;28;20696;-72
2023/07/24 03:25:39;;;;;;;11.33;7.83;;;;;;;;;;5015830;28;20174;-72
2023/07/24 03:28:43;;;;;;;11.17;8.23;;;;;;;;;;5015784;28;20201;-72
2023/07/24 03:31:47;;;;;;;18.30;8.80;;;;;;;;;;5016327;28;20225;-72
2023/07/24 03:34:51;;;;;;;12.17;7.93;;;;;;;;;;5016648;28;20213;-71
2023/07/24 03:37:55;;;;;;;11.83;7.87;;;;;;;;;;5016113;28;20185;-72
2023/07/24 03:41:00;;;;;;;14.43;8.77;;;;;;;;;;5016239;28;20217;-72
2023/07/24 03:44:06;;;;;;;15.47;8.97;;;;;;;;;;5016285;28;20629;-72
2023/07/24 03:47:10;;;;;;;16.80;9.53;;;;;;;;;;5015467;28;20181;-71
2023/07/24 03:50:14;;;;;;;13.67;9.47;;;;;;;;;;5015155;28;20174;-71
2023/07/24 03:53:18;;;;;;;15.93;9.43;;;;;;;;;;5016108;28;20209;-71
2023/07/24 03:56:23;;;;;;;14.83;8.77;;;;;;;;;;5015809;28;20632;-71
2023/07/24 03:59:27;;;;;;;13.07;8.90;;;;;;;;;;5014113;28;20185;-71
2023/07/24 04:02:31;;;;;;;13.53;9.20;;;;;;;;;;5014858;28;20225;-71
2023/07/24 04:05:36;;;;;;;12.83;8.50;;;;;;;;;;5015675;28;20174;-71
2023/07/24 04:08:40;;;;;;;13.57;9.13;;;;;;;;;;5015079;28;20181;-71
2023/07/24 04:11:44;;;;;;;14.43;8.87;;;;;;;;;;5029430;22;20209;-73
2023/07/24 04:14:51;;;;;;;16.13;8.93;;;;;;;;;;5016272;28;20213;-73
2023/07/24 04:17:55;;;;;;;16.13;9.50;;;;;;;;;;5003929;28;20185;-73
2023/07/24 04:21:00;;;;;;;15.57;9.00;;;;;;;;;;5015486;28;20216;-73
2023/07/24 04:24:04;;;;;;;12.87;9.13;;;;;;;;;;5015322;28;20173;-73
2023/07/24 04:27:08;;;;;;;13.50;9.57;;;;;;;;;;5014466;28;20181;-73
2023/07/24 04:30:12;;;;;;;14.83;9.00;;;;;;;;;;5013905;28;20205;-73
2023/07/24 04:33:16;;;;;;;17.23;9.53;;;;;;;;;;4995456;28;20210;-73
2023/07/24 04:36:20;;;;;;;16.93;9.43;;;;;;;;;;4995575;28;20202;-73
2023/07/24 04:39:24;;;;;;;13.87;9.03;;;;;;;;;;4995747;28;20182;-73
2023/07/24 04:42:29;;;;;;;15.50;9.67;;;;;;;;;;4972481;28;20680;-73
2023/07/24 04:45:32;;;;;;;16.00;8.97;;;;;;;;;;4995492;28;20179;-73
2023/07/24 04:48:37;;;;;;;16.83;9.27;;;;;;;;;;4995814;28;20182;-73
2023/07/24 04:51:41;;;;;;;13.03;8.73;;;;;;;;;;4983429;28;20218;-73
2023/07/24 04:54:45;;;;;;;16.27;9.10;;;;;;;;;;4995028;28;20210;-73
2023/07/24 04:57:49;;;;;;;12.10;8.43;;;;;;;;;;4983065;28;20182;-73
2023/07/24 05:00:53;;;;;;;14.47;9.10;;;;;;;;;;4995335;28;20221;-73
2023/07/24 05:03:57;;;;;;;14.57;8.33;;;;;;;;;;4994723;28;20210;-72
2023/07/24 05:07:01;;;;;;;13.20;8.97;;;;;;;;;;4994848;28;20198;-73
2023/07/24 05:10:06;;;;;;;11.77;8.43;;;;;;;;;;4971998;28;20657;-73
2023/07/24 05:13:10;;;;;;;12.07;8.33;;;;;;;;;;4994587;28;20209;-72
2023/07/24 05:16:14;;;;;;;11.93;8.03;;;;;;;;;;4983553;28;20194;-73
2023/07/24 05:19:18;;;;;;;11.43;8.00;;;;;;;;;;4994837;28;20178;-73
2023/07/24 05:22:22;;;;;;;10.43;7.70;;;;;;;;;;4994879;28;20705;-73
2023/07/24 05:25:26;;;;;;;11.20;8.60;;;;;;;;;;4971791;28;20178;-73
2023/07/24 05:28:32;;;;;;;10.80;8.10;;;;;;;;;;4994725;28;20179;-73
2023/07/24 05:31:36;;;;;;;12.40;8.07;;;;;;;;;;4994483;28;20213;-73
2023/07/24 05:34:40;;;;;;;12.23;8.20;;;;;;;;;;4994110;28;20218;-73
2023/07/24 05:37:44;;;;;;;11.90;8.27;;;;;;;;;;4994264;28;20198;-73
2023/07/24 05:40:57;;;;;;;12.67;8.00;;;;;;;;;;4994446;28;20563;-73
2023/07/24 05:44:02;;;;;;;10.60;8.47;;;;;;;;;;4982322;28;20194;-73
2023/07/24 05:47:06;;;;;;;16.30;8.20;;;;;;;;;;4994994;28;20518;-73
2023/07/24 05:50:13;;;;;;;11.10;8.40;;;;;;;;;;4994631;28;20503;-73
2023/07/24 05:53:17;;;;;;;12.00;8.73;;;;;;;;;;4982096;28;20190;-73
2023/07/24 05:56:21;;;;;;;11.00;8.30;;;;;;;;;;4994081;28;20194;-73
2023/07/24 05:59:25;;;;;;;11.83;8.70;;;;;;;;;;4993835;28;20182;-73
2023/07/24 06:02:29;;;;;;;12.10;8.23;;;;;;;;;;4993589;28;20210;-73
2023/07/24 06:05:34;;;;;;;13.43;9.67;;;;;;;;;;4993882;28;20198;-73
2023/07/24 06:08:37;;;;;;;13.77;8.53;;;;;;;;;;4993949;28;20190;-73
2023/07/24 06:11:42;;;;;;;15.37;8.63;;;;;;;;;;4993668;28;20213;-73
2023/07/24 06:14:46;;;;;;;13.53;9.20;;;;;;;;;;4993520;28;20549;-73
2023/07/24 06:17:50;;;;;;;13.97;8.10;;;;;;;;;;4981464;28;20205;-73
2023/07/24 06:20:54;;;;;;;12.10;8.63;;;;;;;;;;4993591;28;20213;-73
2023/07/24 06:23:58;;;;;;;13.93;8.20;;;;;;;;;;4993646;28;20617;-73
2023/07/24 06:27:03;;;;;;;13.30;9.40;;;;;;;;;;4993703;28;20186;-73
2023/07/24 06:30:07;;;;;;;11.90;8.83;;;;;;;;;;4993960;28;20186;-73
2023/07/24 06:33:11;;;;;;;14.00;9.20;;;;;;;;;;4993913;28;20629;-73
2023/07/24 06:36:15;;;;;;;12.80;8.80;;;;;;;;;;4994237;28;20178;-73
2023/07/24 06:39:20;;;;;;;14.47;9.30;;;;;;;;;;4993596;28;20186;-73
2023/07/24 06:42:24;;;;;;;15.47;10.17;;;;;;;;;;4981519;28;20213;-73
2023/07/24 06:45:28;;;;;;;13.73;8.73;;;;;;;;;;4994104;28;20193;-72
2023/07/24 06:48:32;;;;;;;13.90;9.77;;;;;;;;;;4994056;28;20186;-72
2023/07/24 06:51:38;;;;;;;13.13;9.43;;;;;;;;;;4993867;28;20700;-73
2023/07/24 06:54:42;;;;;;;14.37;10.33;;;;;;;;;;4993682;28;20222;-73
2023/07/24 06:57:46;;;;;;;12.63;9.07;;;;;;;;;;4993252;28;20200;-73
2023/07/24 07:00:50;;;;;;;12.63;8.90;;;;;;;;;;4993085;28;20213;-73
2023/07/24 07:03:55;;;;;;;16.13;9.50;;;;;;;;;;4993658;28;20653;-73
2023/07/24 07:06:59;;;;;;;14.00;9.97;;;;;;;;;;4993328;28;20186;-73
2023/07/24 07:10:05;;;;;;;18.53;10.40;;;;;;;;;;4999870;28;20205;-73
2023/07/24 07:13:09;;;;;;;15.90;9.87;;;;;;;;;;5012642;28;20212;-73
2023/07/24 07:16:13;;;;;;;17.63;10.23;;;;;;;;;;5012951;28;20233;-73
2023/07/24 07:19:17;;;;;;;12.90;9.53;;;;;;;;;;5013114;28;20193;-73
2023/07/24 07:22:22;;;;;;;14.03;9.77;;;;;;;;;;5012680;28;20217;-72
2023/07/24 07:25:26;;;;;;;14.13;9.90;;;;;;;;;;5012607;28;20190;-73
2023/07/24 07:28:30;;;;;;;17.77;10.43;;;;;;;;;;5000732;28;20178;-73
2023/07/24 07:31:34;;;;;;;14.03;9.73;;;;;;;;;;5012886;28;20229;-72
2023/07/24 07:34:39;;;;;;;16.13;9.60;;;;;;;;;;5014678;28;20209;-73
2023/07/24 07:37:43;;;;;;;19.50;9.73;;;;;;;;;;5016377;28;20636;-73
2023/07/24 07:40:47;;;;;;;14.90;9.33;;;;;;;;;;5016044;28;20217;-73
2023/07/24 07:43:51;;;;;;;15.80;9.20;;;;;;;;;;5016251;28;20177;-73
2023/07/24 07:46:56;;;;;;;11.43;8.40;;;;;;;;;;5016259;28;20173;-72
2023/07/24 07:50:00;;;;;;;13.50;8.83;;;;;;;;;;5016440;28;20199;-73
2023/07/24 07:53:04;;;;;;;12.67;8.27;;;;;;;;;;5016012;28;20185;-73
2023/07/24 07:56:08;;;;;;;13.57;8.93;;;;;;;;;;5015980;28;20213;-72
2023/07/24 07:59:13;;;;;;;12.77;8.03;;;;;;;;;;5015762;28;20190;-72
2023/07/24 08:02:17;;;;;;;13.07;8.13;;;;;;;;;;5015672;28;20217;-72
2023/07/24 08:05:21;;;;;;;12.70;8.00;;;;;;;;;;5015840;28;20173;-73
2023/07/24 08:08:25;;;;;;;14.40;7.90;;;;;;;;;;5015591;28;20181;-72
2023/07/24 08:11:29;;;;;;;13.83;8.23;;;;;;;;;;5003621;28;20585;-73
2023/07/24 08:14:34;;;;;;;16.17;8.43;;;;;;;;;;5003558;28;20658;-73
2023/07/24 08:17:38;;;;;;;14.53;8.70;;;;;;;;;;5015685;28;20181;-73
2023/07/24 08:20:42;;;;;;;12.87;8.27;;;;;;;;;;5015567;28;20711;-73
2023/07/24 08:23:46;;;;;;;10.17;7.17;;;;;;;;;;5015534;28;20178;-73
2023/07/24 08:26:50;;;;;;;10.37;7.80;;;;;;;;;;5015713;28;20173;-73
2023/07/24 08:29:55;;;;;;;10.93;8.07;;;;;;;;;;5015295;28;20205;-73
2023/07/24 08:32:59;;;;;;;9.60;7.43;;;;;;;;;;5014981;28;20181;-73
2023/07/24 08:36:05;;;;;;;11.27;7.27;;;;;;;;;;5015011;28;20213;-72
2023/07/24 08:39:09;;;;;;;8.63;6.10;;;;;;;;;;5015274;28;20181;-73
2023/07/24 08:42:14;;;;;;;12.37;7.33;;;;;;;;;;5015474;28;20217;-73
2023/07/24 08:45:18;;;;;;;12.77;7.37;;;;;;;;;;5014991;28;20620;-72
2023/07/24 08:48:23;;;;;;;11.40;7.90;;;;;;;;;;5015124;28;20502;-73
2023/07/24 08:51:28;;;;;;;12.33;7.23;;;;;;;;;;5014942;28;20228;-73
2023/07/24 08:54:35;;;;;;;15.13;7.57;;;;;;;;;;5003023;28;20181;-73
2023/07/24 08:57:39;;;;;;;10.50;7.20;;;;;;;;;;5002848;28;20185;-73
2023/07/24 09:00:43;;;;;;;12.30;7.73;;;;;;;;;;5002795;28;20242;-73
2023/07/24 09:03:48;;;;;;;10.97;7.77;;;;;;;;;;5015531;28;20221;-73
2023/07/24 09:06:53;;;;;;;10.67;7.33;;;;;;;;;;5002895;28;20625;-73
2023/07/24 09:09:57;;;;;;;10.53;7.20;;;;;;;;;;5014710;28;20216;-73
2023/07/24 09:13:03;;;;;;;8.90;7.00;;;;;;;;;;5014379;28;20205;-73
2023/07/24 09:16:08;;;;;;;10.93;7.40;;;;;;;;;;5014242;28;20688;-73
2023/07/24 09:19:21;;;;;;;10.87;7.40;;;;;;;;;;5014522;28;20186;-73
2023/07/24 09:22:26;;;;;;;9.87;6.33;;;;;;;;;;5004699;28;20214;-74
2023/07/24 09:25:55;;;;;;;10.03;7.00;;;;;;;;;;4995094;28;20193;-74
2023/07/24 09:29:02;;;;;;;8.90;6.10;;;;;;;;;;4979213;28;20633;-72
2023/07/24 09:32:18;;;;;;;8.47;5.60;;;;;;;;;;4990857;28;20209;-72
2023/07/24 09:35:27;;;;;;;11.47;5.97;;;;;;;;;;5013649;28;20217;-73
2023/07/24 09:38:31;;;;;;;8.90;6.47;;;;;;;;;;5001961;28;20179;-73
2023/07/24 09:41:35;;;;;;;8.70;5.60;;;;;;;;;;5002104;28;20565;-73
2023/07/24 09:44:39;;;;;;;9.53;5.63;;;;;;;;;;4990789;28;20202;-73
2023/07/24 09:47:44;;;;;;;12.27;5.90;;;;;;;;;;5002329;28;20192;-73
2023/07/24 09:50:51;;;;;;;7.60;5.90;;;;;;;;;;5013761;28;20217;-73
2023/07/24 09:54:10;;;;;;;9.30;5.82;;;;;;;;;;5013739;28;20526;-73
2023/07/24 09:57:15;;;;;;;10.00;6.63;;;;;;;;;;5013683;28;20196;-73
2023/07/24 10:00:20;;;;;;;8.43;6.03;;;;;;;;;;5001457;28;20192;-73
2023/07/24 10:03:24;;;;;;;7.93;5.80;;;;;;;;;;5014130;28;20175;-73
2023/07/24 10:06:29;;;;;;;7.87;5.97;;;;;;;;;;5013666;28;20174;-73
2023/07/24 10:09:33;;;;;;;8.63;6.50;;;;;;;;;;5013691;28;20190;-73
2023/07/24 10:12:37;;;;;;;10.07;6.17;;;;;;;;;;5014932;23;20236;-70
2023/07/24 10:15:42;;;;;;;9.33;6.93;;;;;;;;;;5024174;28;20205;-70
2023/07/24 10:18:46;;;;;;;8.80;6.70;;;;;;;;;;5013287;28;20180;-70
2023/07/24 10:21:51;;;;;;;8.07;6.30;;;;;;;;;;5013608;28;20685;-71
2023/07/24 10:24:55;;;;;;;9.17;6.43;;;;;;;;;;5013399;28;20182;-70
2023/07/24 10:28:07;;;;;;;8.23;6.20;;;;;;;;;;5001335;28;20181;-71
2023/07/24 10:31:23;;;;;;;7.67;5.70;;;;;;;;;;5012920;28;20218;-71
2023/07/24 10:34:37;;;;;;;8.23;6.00;;;;;;;;;;5012735;28;20198;-71
2023/07/24 10:37:41;;;;;;;9.07;6.00;;;;;;;;;;5013435;28;20198;-71
2023/07/24 10:40:48;;;;;;;9.97;6.40;;;;;;;;;;5012320;28;20220;-70
2023/07/24 10:43:59;;;;;;;8.87;6.07;;;;;;;;;;5013223;28;20191;-71
2023/07/24 10:47:04;;;;;;;7.63;5.80;;;;;;;;;;5013400;28;20174;-71
2023/07/24 10:50:08;;;;;;;8.80;6.03;;;;;;;;;;5013427;28;20523;-71
2023/07/24 10:53:17;;;;;;;7.30;5.80;;;;;;;;;;5013295;28;20358;-71
2023/07/24 10:56:22;;;;;;;8.50;5.90;;;;;;;;;;5000556;28;20213;-70
2023/07/24 10:59:36;;;;;;;8.40;5.80;;;;;;;;;;5012373;28;20628;-71
2023/07/24 11:02:40;;;;;;;7.27;6.27;;;;;;;;;;5011992;28;20554;-70
2023/07/24 11:05:46;;;;;;;7.83;5.80;;;;;;;;;;5012211;28;20189;-71
2023/07/24 11:08:59;;;;;;;7.73;5.67;;;;;;;;;;5013746;28;20178;-71
2023/07/24 11:12:14;;;;;;;8.37;5.80;;;;;;;;;;5016484;28;20226;-71
2023/07/24 11:15:28;;;;;;;9.47;5.40;;;;;;;;;;5016480;28;20201;-70
2023/07/24 11:18:32;;;;;;;8.03;6.00;;;;;;;;;;5016041;28;20184;-71
2023/07/24 11:21:36;;;;;;;8.20;6.13;;;;;;;;;;5016580;28;20719;-71
2023/07/24 11:24:47;;;;;;;9.03;5.93;;;;;;;;;;5015860;28;20642;-71
2023/07/24 11:27:51;;;;;;;6.10;4.73;;;;;;;;;;5004312;28;20541;-70
2023/07/24 11:31:02;;;;;;;7.70;6.20;;;;;;;;;;5016652;28;20217;-70
2023/07/24 11:34:07;;;;;;;7.97;5.47;;;;;;;;;;5016157;28;20181;-70
2023/07/24 11:37:11;;;;;;;6.87;5.30;;;;;;;;;;5016509;28;20212;-70
2023/07/24 11:40:16;;;;;;;7.60;5.53;;;;;;;;;;5015859;28;20630;-71
2023/07/24 11:43:21;;;;;;;9.00;5.78;;;;;;;;;;5015662;28;20177;-71
2023/07/24 11:46:27;;;;;;;7.45;5.57;;;;;;;;;;5016460;28;20179;-69
2023/07/24 11:49:32;;;;;;;7.18;4.70;;;;;;;;;;5015309;28;20202;-69
2023/07/24 11:52:40;;;;;;;6.05;5.18;;;;;;;;;;5015713;28;20223;-70
2023/07/24 11:55:45;;;;;;;6.40;4.70;;;;;;;;;;5014911;28;20228;-70
2023/07/24 11:58:49;;;;;;;7.10;4.88;;;;;;;;;;5014542;28;20643;-70
2023/07/24 12:01:53;;;;;;;5.70;4.30;;;;;;;;;;5015564;28;20218;-69
2023/07/24 12:04:58;;;;;;;6.65;5.03;;;;;;;;;;5015056;28;20200;-69
2023/07/24 12:08:02;;;;;;;6.75;5.30;;;;;;;;;;5014666;28;20666;-70
2023/07/24 12:11:16;;;;;;;6.05;4.85;;;;;;;;;;5015138;28;20219;-70
2023/07/24 12:14:20;;;;;;;6.18;4.50;;;;;;;;;;5015441;28;20228;-70
2023/07/24 12:17:25;;;;;;;6.63;4.40;;;;;;;;;;5015739;28;20202;-71
2023/07/24 12:20:29;;;;;;;6.60;4.57;;;;;;;;;;5014215;28;20179;-70
2023/07/24 12:23:33;;;;;;;6.82;4.35;;;;;;;;;;5014577;28;20174;-70
2023/07/24 12:26:38;;;;;;;7.80;5.20;;;;;;;;;;5014552;28;20174;-72
2023/07/24 12:29:42;;;;;;;11.13;5.83;;;;;;;;;;5014479;28;20183;-72
2023/07/24 12:32:46;;;;;;;9.80;6.10;;;;;;;;;;5015670;28;20183;-72
2023/07/24 12:35:51;;;;;;;8.37;5.77;;;;;;;;;;5015325;28;20215;-72
2023/07/24 12:38:55;;;;;;;8.47;6.30;;;;;;;;;;5015205;28;20515;-71
2023/07/24 12:41:59;;;;;;;7.93;6.10;;;;;;;;;;5014669;28;20221;-73
2023/07/24 12:45:04;;;;;;;9.63;5.07;;;;;;;;;;5014597;28;20213;-72
2023/07/24 12:48:09;;;;;;;6.57;5.07;;;;;;;;;;5014264;28;20198;-71
2023/07/24 12:51:15;;;;;;;8.30;5.13;;;;;;;;;;5013973;28;20217;-71
2023/07/24 12:54:19;;;;;;;7.07;5.07;;;;;;;;;;5015091;28;20186;-71
2023/07/24 12:57:26;;;;;;;5.63;4.87;;;;;;;;;;5014713;28;20209;-70
2023/07/24 13:00:31;;;;;;;7.03;4.87;;;;;;;;;;5014736;28;20185;-70
2023/07/24 13:03:35;;;;;;;7.67;5.43;;;;;;;;;;5014702;28;20181;-70
2023/07/24 13:06:39;;;;;;;7.47;4.30;;;;;;;;;;5014273;28;20178;-70
2023/07/24 13:09:44;;;;;;;7.00;5.20;;;;;;;;;;5014301;28;20201;-70
2023/07/24 13:12:48;;;;;;;10.33;5.20;;;;;;;;;;5014360;28;20204;-70
2023/07/24 13:15:53;;;;;;;6.93;4.93;;;;;;;;;;5014168;28;20197;-70
2023/07/24 13:18:57;;;;;;;6.77;4.97;;;;;;;;;;5013993;28;20185;-70
2023/07/24 13:22:01;;;;;;;7.73;5.27;;;;;;;;;;5014149;28;20213;-70
2023/07/24 13:25:06;;;;;;;6.27;4.80;;;;;;;;;;5014542;28;20533;-69
2023/07/24 13:28:10;;;;;;;7.37;5.00;;;;;;;;;;5014312;28;20190;-69
2023/07/24 13:31:20;;;;;;;7.20;5.00;;;;;;;;;;5013901;28;20224;-69
2023/07/24 13:34:24;;;;;;;5.73;4.77;;;;;;;;;;5013084;28;20194;-71
2023/07/24 13:37:28;;;;;;;6.73;5.03;;;;;;;;;;5013739;28;20696;-71
2023/07/24 13:40:33;;;;;;;6.17;4.63;;;;;;;;;;5013958;28;20181;-71
2023/07/24 13:43:37;;;;;;;7.07;5.43;;;;;;;;;;5013258;28;20629;-71
2023/07/24 13:46:42;;;;;;;6.37;4.50;;;;;;;;;;5013669;28;20171;-71
2023/07/24 13:49:45;;;;;;;6.83;5.00;;;;;;;;;;5014084;28;20184;-71
2023/07/24 13:52:50;;;;;;;6.90;4.83;;;;;;;;;;5013559;28;20179;-71
2023/07/24 13:55:54;;;;;;;6.93;5.10;;;;;;;;;;5013568;28;20639;-71
2023/07/24 13:58:58;;;;;;;6.33;4.83;;;;;;;;;;5013492;28;20196;-71
2023/07/24 14:02:03;;;;;;;6.00;4.43;;;;;;;;;;5013246;28;20217;-71
2023/07/24 14:05:08;;;;;;;7.30;4.17;;;;;;;;;;5013777;28;20178;-72
2023/07/24 14:08:12;;;;;;;5.30;4.37;;;;;;;;;;4990662;28;20171;-73
2023/07/24 14:11:17;;;;;;;6.57;4.40;;;;;;;;;;5013270;28;20214;-71
2023/07/24 14:14:23;;;;;;;6.00;4.50;;;;;;;;;;5013262;28;20547;-71
2023/07/24 14:17:28;;;;;;;6.45;5.13;;;;;;;;;;5013525;28;20205;-71
2023/07/24 14:20:32;;;;;;;6.18;3.75;;;;;;;;;;5013458;28;20187;-71
2023/07/24 14:23:36;;;;;;;7.20;4.57;;;;;;;;;;5012318;28;20187;-70
2023/07/24 14:26:40;;;;;;;6.13;4.80;;;;;;;;;;5012772;28;20656;-73
2023/07/24 14:29:44;;;;;;;5.93;4.15;;;;;;;;;;5012505;28;20205;-71
2023/07/24 14:32:49;;;;;;;5.03;4.00;;;;;;;;;;5012738;28;20188;-71
2023/07/24 14:35:54;;;;;;;7.78;4.30;;;;;;;;;;5012680;28;20186;-71
2023/07/24 14:39:00;;;;;;;6.22;3.67;;;;;;;;;;5012385;28;20178;-71
2023/07/24 14:42:05;;;;;;;4.95;4.03;;;;;;;;;;5012954;28;20225;-70
2023/07/24 14:45:10;;;;;;;5.07;4.20;;;;;;;;;;5016019;28;20184;-71
2023/07/24 14:48:16;;;;;;;4.70;3.53;;;;;;;;;;5017422;28;20175;-71
2023/07/24 14:51:20;;;;;;;7.28;4.13;;;;;;;;;;5017022;28;20249;-71
2023/07/24 14:54:24;;;;;;;8.98;5.18;;;;;;;;;;5016236;28;20191;-71
2023/07/24 14:57:28;;;;;;;8.55;5.25;;;;;;;;;;5017007;28;20671;-71
2023/07/24 15:00:33;;;;;;;7.93;5.15;;;;;;;;;;5017106;28;20181;-71
2023/07/24 15:03:37;;;;;;;11.50;7.03;;;;;;;;;;5017642;28;20183;-71
2023/07/24 15:06:41;;;;;;;5.43;3.33;;;;;;;;;;5016848;28;20176;-71
2023/07/24 15:09:45;;;;;;;3.55;3.22;;;;;;;;;;5016649;28;20186;-71
2023/07/24 15:12:41;;;;;;;4.47;3.40;;;;;;;;;;5038132;23;20237;-70
2023/07/24 15:15:45;;;;;;;5.93;3.53;;;;;;;;;;5036498;28;20179;-71
2023/07/24 15:18:49;;;;;;;4.07;3.40;;;;;;;;;;5035871;28;20169;-71
2023/07/24 15:21:54;;;;;;;5.00;3.47;;;;;;;;;;5035541;28;20220;-71
2023/07/24 15:24:58;;;;;;;6.40;3.45;;;;;;;;;;5036598;28;20644;-71
2023/07/24 15:28:02;;;;;;;4.97;3.45;;;;;;;;;;5036262;28;20181;-71
2023/07/24 15:31:09;;;;;;;4.80;3.15;;;;;;;;;;5036208;28;20210;-71
2023/07/24 15:34:13;;;;;;;3.30;3.00;;;;;;;;;;5036275;28;20187;-71
2023/07/24 15:37:17;;;;;;;4.05;3.28;;;;;;;;;;5035792;28;20548;-71
2023/07/24 15:40:21;;;;;;;4.90;3.20;;;;;;;;;;5035332;28;20197;-71
2023/07/24 15:43:26;;;;;;;5.88;3.28;;;;;;;;;;5023586;28;20180;-70
2023/07/24 15:46:31;;;;;;;5.63;3.20;;;;;;;;;;5035762;28;20187;-71
2023/07/24 15:49:35;;;;;;;4.47;3.20;;;;;;;;;;5035785;28;20180;-71
2023/07/24 15:52:39;;;;;;;4.07;3.00;;;;;;;;;;5035908;28;20216;-71
2023/07/24 15:55:43;;;;;;;7.70;3.67;;;;;;;;;;5035834;28;20517;-70
2023/07/24 15:58:49;;;;;;;5.77;3.33;;;;;;;;;;5023678;28;20678;-71
2023/07/24 16:01:54;;;;;;;3.80;3.40;;;;;;;;;;5035634;28;20566;-71
2023/07/24 16:04:58;;;;;;;4.33;2.90;;;;;;;;;;5035618;28;20186;-71
2023/07/24 16:08:02;;;;;;;5.43;2.80;;;;;;;;;;5035371;28;20178;-71
2023/07/24 16:11:09;;;;;;;3.47;2.60;;;;;;;;;;5035479;28;20564;-71
2023/07/24 16:14:14;;;;;;;3.50;2.67;;;;;;;;;;5023357;28;20182;-70
2023/07/24 16:17:20;;;;;;;6.37;2.90;;;;;;;;;;5036282;23;20228;-73
2023/07/24 16:20:24;;;;;;;4.77;3.50;;;;;;;;;;5033400;28;20177;-73
2023/07/24 16:23:28;;;;;;;4.37;3.30;;;;;;;;;;5033906;28;20555;-73
2023/07/24 16:26:34;;;;;;;5.07;3.33;;;;;;;;;;5033912;28;20200;-72
2023/07/24 16:29:38;;;;;;;5.60;3.50;;;;;;;;;;5032943;28;20173;-73
2023/07/24 16:32:44;;;;;;;4.27;3.50;;;;;;;;;;5033073;28;20216;-72
2023/07/24 16:35:48;;;;;;;4.67;3.13;;;;;;;;;;5034093;28;20173;-73
2023/07/24 16:38:52;;;;;;;6.03;3.00;;;;;;;;;;5032889;28;20200;-73
2023/07/24 16:41:56;;;;;;;5.30;3.30;;;;;;;;;;5033826;28;20212;-73
2023/07/24 16:45:00;;;;;;;4.07;3.20;;;;;;;;;;5033916;28;20184;-73
2023/07/24 16:48:04;;;;;;;4.97;3.13;;;;;;;;;;5034109;28;20181;-73
2023/07/24 16:51:08;;;;;;;4.63;3.17;;;;;;;;;;5033748;28;20208;-73
2023/07/24 16:54:12;;;;;;;5.90;3.13;;;;;;;;;;5033536;28;20180;-73
2023/07/24 16:57:16;;;;;;;7.07;3.17;;;;;;;;;;5021848;28;20205;-73
2023/07/24 17:00:20;;;;;;;4.47;3.57;;;;;;;;;;5033456;28;20181;-73
2023/07/24 17:03:24;;;;;;;5.10;3.37;;;;;;;;;;5033125;28;20181;-73
2023/07/24 17:06:28;;;;;;;6.70;3.70;;;;;;;;;;5032805;28;20177;-73
2023/07/24 17:09:33;;;;;;;5.10;3.07;;;;;;;;;;5033507;28;20173;-73
2023/07/24 17:12:37;;;;;;;5.90;3.70;;;;;;;;;;5032396;28;20564;-73
2023/07/24 17:15:43;;;;;;;7.07;4.20;;;;;;;;;;4996170;28;1055138;-73
2023/07/24 17:18:53;;;;;;;4.67;4.13;;;;;;;;;;5033983;28;20243;-73
2023/07/24 17:21:57;;;;;;;5.80;4.33;;;;;;;;;;5034274;28;20220;-73
2023/07/24 17:25:02;;;;;;;4.90;3.63;;;;;;;;;;5033314;28;20544;-74
2023/07/24 17:28:07;;;;;;;4.83;3.83;;;;;;;;;;5033991;28;20177;-73
2023/07/24 17:31:11;;;;;;;6.67;3.77;;;;;;;;;;5021813;28;20216;-74
2023/07/24 17:34:15;;;;;;;7.63;3.97;;;;;;;;;;5033949;28;20184;-73
2023/07/24 17:37:19;;;;;;;7.73;3.43;;;;;;;;;;5034537;28;20176;-74
2023/07/24 17:40:24;;;;;;;7.90;3.67;;;;;;;;;;5033445;28;20177;-74
2023/07/24 17:43:27;;;;;;;5.37;3.30;;;;;;;;;;5021295;28;20189;-73
2023/07/24 17:46:31;;;;;;;4.53;3.73;;;;;;;;;;5033736;28;20180;-73
2023/07/24 17:49:37;;;;;;;5.00;3.83;;;;;;;;;;5033672;28;20177;-73
2023/07/24 17:52:41;;;;;;;3.80;3.37;;;;;;;;;;5032471;28;20220;-73
2023/07/24 17:55:46;;;;;;;5.03;3.63;;;;;;;;;;5033681;28;20184;-72
2023/07/24 17:58:50;;;;;;;5.10;3.10;;;;;;;;;;5033535;28;20209;-72
2023/07/24 18:01:54;;;;;;;6.87;3.60;;;;;;;;;;5033307;28;20212;-73
2023/07/24 18:04:58;;;;;;;6.33;3.47;;;;;;;;;;5033752;28;20177;-73
2023/07/24 18:08:03;;;;;;;4.83;3.57;;;;;;;;;;5032602;28;20173;-73
2023/07/24 18:11:07;;;;;;;4.03;3.50;;;;;;;;;;5033209;28;20216;-73
2023/07/24 18:14:11;;;;;;;4.67;3.40;;;;;;;;;;5032464;28;20196;-73
2023/07/24 18:17:15;;;;;;;4.57;3.17;;;;;;;;;;5033106;28;20204;-73
2023/07/24 18:20:19;;;;;;;3.90;3.30;;;;;;;;;;5032243;28;20177;-73